sensor_id;sensor_type;location;lat;lon;timestamp;P1;durP1;ratioP1;P2;durP2;ratioP2
37885;SDS011;23726;52.520;13.434;2022-11-20T00:00:55;69.72;;;39.55;;
37885;SDS011;23726;52.520;13.434;2022-11-20T00:03:37;67.13;;;38.95;;
37885;SDS011;23726;52.520;13.434;2022-11-20T00:06:03;68.68;;;38.83;;
37885;SDS011;23726;52.520;13.434;2022-11-20T00:08:30;68.55;;;39.15;;
37885;SDS011;23726;52.520;13.434;2022-11-20T00:10:56;65.00;;;37.60;;
37885;SDS011;23726;52.520;13.434;2022-11-20T00:13:22;68.82;;;38.97;;
37885;SDS011;23726;52.520;13.434;2022-11-20T00:15:48;65.22;;;37.88;;
37885;SDS011;23726;52.520;13.434;2022-11-20T00:18:13;65.72;;;36.90;;
37885;SDS011;23726;52.520;13.434;2022-11-20T00:20:39;63.90;;;36.70;;
37885;SDS011;23726;52.520;13.434;2022-11-20T00:23:04;66.55;;;37.90;;
37885;SDS011;23726;52.520;13.434;2022-11-20T00:25:33;67.07;;;37.60;;
37885;SDS011;23726;52.520;13.434;2022-11-20T00:28:00;59.03;;;37.35;;
37885;SDS011;23726;52.520;13.434;2022-11-20T00:30:25;59.03;;;35.53;;
37885;SDS011;23726;52.520;13.434;2022-11-20T00:32:51;59.45;;;36.28;;
37885;SDS011;23726;52.520;13.434;2022-11-20T00:35:17;56.83;;;35.70;;
37885;SDS011;23726;52.520;13.434;2022-11-20T00:37:42;64.25;;;36.50;;
37885;SDS011;23726;52.520;13.434;2022-11-20T00:40:08;64.18;;;35.92;;
37885;SDS011;23726;52.520;13.434;2022-11-20T00:42:34;60.55;;;34.38;;
37885;SDS011;23726;52.520;13.434;2022-11-20T00:44:59;59.75;;;36.08;;
37885;SDS011;23726;52.520;13.434;2022-11-20T00:47:25;61.50;;;35.88;;
37885;SDS011;23726;52.520;13.434;2022-11-20T00:49:51;58.83;;;34.40;;
37885;SDS011;23726;52.520;13.434;2022-11-20T00:52:16;61.88;;;35.65;;
37885;SDS011;23726;52.520;13.434;2022-11-20T00:54:42;58.95;;;35.25;;
37885;SDS011;23726;52.520;13.434;2022-11-20T00:57:07;55.60;;;32.40;;
37885;SDS011;23726;52.520;13.434;2022-11-20T00:59:33;52.03;;;33.05;;
37885;SDS011;23726;52.520;13.434;2022-11-20T01:01:58;56.85;;;33.30;;
37885;SDS011;23726;52.520;13.434;2022-11-20T01:04:24;56.72;;;33.78;;
37885;SDS011;23726;52.520;13.434;2022-11-20T01:06:50;51.35;;;30.30;;
37885;SDS011;23726;52.520;13.434;2022-11-20T01:09:15;39.13;;;23.73;;
37885;SDS011;23726;52.520;13.434;2022-11-20T01:11:42;31.55;;;20.42;;
37885;SDS011;23726;52.520;13.434;2022-11-20T01:14:16;32.72;;;20.15;;
37885;SDS011;23726;52.520;13.434;2022-11-20T01:16:44;28.67;;;18.23;;
37885;SDS011;23726;52.520;13.434;2022-11-20T01:19:13;28.33;;;17.65;;
37885;SDS011;23726;52.520;13.434;2022-11-20T01:21:41;26.35;;;16.08;;
37885;SDS011;23726;52.520;13.434;2022-11-20T01:24:10;30.50;;;18.75;;
37885;SDS011;23726;52.520;13.434;2022-11-20T01:26:39;32.10;;;19.50;;
37885;SDS011;23726;52.520;13.434;2022-11-20T01:29:07;33.25;;;18.35;;
37885;SDS011;23726;52.520;13.434;2022-11-20T01:31:37;35.15;;;18.65;;
37885;SDS011;23726;52.520;13.434;2022-11-20T01:34:04;31.23;;;18.25;;
37885;SDS011;23726;52.520;13.434;2022-11-20T01:36:34;32.83;;;18.58;;
37885;SDS011;23726;52.520;13.434;2022-11-20T01:39:01;26.77;;;16.98;;
37885;SDS011;23726;52.520;13.434;2022-11-20T01:41:30;31.27;;;17.75;;
37885;SDS011;23726;52.520;13.434;2022-11-20T01:44:18;27.90;;;17.13;;
37885;SDS011;23726;52.520;13.434;2022-11-20T01:47:03;28.23;;;17.23;;
37885;SDS011;23726;52.520;13.434;2022-11-20T01:49:48;27.30;;;17.48;;
37885;SDS011;23726;52.520;13.434;2022-11-20T01:52:26;33.30;;;18.95;;
37885;SDS011;23726;52.520;13.434;2022-11-20T01:57:35;27.27;;;16.98;;
37885;SDS011;23726;52.520;13.434;2022-11-20T02:00:05;30.25;;;16.55;;
37885;SDS011;23726;52.520;13.434;2022-11-20T02:02:33;28.80;;;17.00;;
37885;SDS011;23726;52.520;13.434;2022-11-20T02:05:01;26.30;;;17.42;;
37885;SDS011;23726;52.520;13.434;2022-11-20T02:07:34;29.20;;;18.13;;
37885;SDS011;23726;52.520;13.434;2022-11-20T02:10:00;27.92;;;16.75;;
37885;SDS011;23726;52.520;13.434;2022-11-20T02:12:26;26.25;;;16.92;;
37885;SDS011;23726;52.520;13.434;2022-11-20T02:15:11;26.50;;;16.83;;
37885;SDS011;23726;52.520;13.434;2022-11-20T02:17:37;27.40;;;16.63;;
37885;SDS011;23726;52.520;13.434;2022-11-20T02:20:03;27.13;;;17.35;;
37885;SDS011;23726;52.520;13.434;2022-11-20T02:22:31;27.83;;;16.85;;
37885;SDS011;23726;52.520;13.434;2022-11-20T02:25:03;25.80;;;16.85;;
37885;SDS011;23726;52.520;13.434;2022-11-20T02:27:30;25.67;;;16.13;;
37885;SDS011;23726;52.520;13.434;2022-11-20T02:29:57;28.58;;;16.70;;
37885;SDS011;23726;52.520;13.434;2022-11-20T02:32:30;25.35;;;16.02;;
37885;SDS011;23726;52.520;13.434;2022-11-20T02:34:57;27.60;;;17.00;;
37885;SDS011;23726;52.520;13.434;2022-11-20T02:37:23;24.50;;;16.10;;
37885;SDS011;23726;52.520;13.434;2022-11-20T02:39:55;28.17;;;17.08;;
37885;SDS011;23726;52.520;13.434;2022-11-20T02:42:20;28.30;;;17.15;;
37885;SDS011;23726;52.520;13.434;2022-11-20T02:44:46;27.45;;;17.23;;
37885;SDS011;23726;52.520;13.434;2022-11-20T02:47:11;27.40;;;16.88;;
37885;SDS011;23726;52.520;13.434;2022-11-20T02:49:38;24.15;;;16.63;;
37885;SDS011;23726;52.520;13.434;2022-11-20T02:52:03;27.88;;;16.90;;
37885;SDS011;23726;52.520;13.434;2022-11-20T02:54:29;28.02;;;17.30;;
37885;SDS011;23726;52.520;13.434;2022-11-20T02:56:56;25.55;;;16.55;;
37885;SDS011;23726;52.520;13.434;2022-11-20T02:59:22;26.08;;;17.50;;
37885;SDS011;23726;52.520;13.434;2022-11-20T03:01:47;25.70;;;16.20;;
37885;SDS011;23726;52.520;13.434;2022-11-20T03:04:13;26.52;;;16.23;;
37885;SDS011;23726;52.520;13.434;2022-11-20T03:06:39;24.25;;;16.05;;
37885;SDS011;23726;52.520;13.434;2022-11-20T03:09:04;24.27;;;15.40;;
37885;SDS011;23726;52.520;13.434;2022-11-20T03:11:30;24.23;;;16.48;;
37885;SDS011;23726;52.520;13.434;2022-11-20T03:13:55;24.05;;;16.13;;
37885;SDS011;23726;52.520;13.434;2022-11-20T03:16:22;24.92;;;15.90;;
37885;SDS011;23726;52.520;13.434;2022-11-20T03:18:48;24.30;;;15.90;;
37885;SDS011;23726;52.520;13.434;2022-11-20T03:21:15;24.02;;;15.68;;
37885;SDS011;23726;52.520;13.434;2022-11-20T03:23:41;24.50;;;16.73;;
37885;SDS011;23726;52.520;13.434;2022-11-20T03:26:11;23.88;;;16.15;;
37885;SDS011;23726;52.520;13.434;2022-11-20T03:28:37;24.35;;;15.02;;
37885;SDS011;23726;52.520;13.434;2022-11-20T03:31:07;26.35;;;16.73;;
37885;SDS011;23726;52.520;13.434;2022-11-20T03:33:35;23.25;;;15.55;;
37885;SDS011;23726;52.520;13.434;2022-11-20T03:36:02;25.70;;;16.13;;
37885;SDS011;23726;52.520;13.434;2022-11-20T03:38:31;25.65;;;15.98;;
37885;SDS011;23726;52.520;13.434;2022-11-20T03:41:04;24.27;;;15.70;;
37885;SDS011;23726;52.520;13.434;2022-11-20T03:43:34;23.98;;;15.57;;
37885;SDS011;23726;52.520;13.434;2022-11-20T03:46:00;22.38;;;15.23;;
37885;SDS011;23726;52.520;13.434;2022-11-20T03:48:26;21.25;;;14.80;;
37885;SDS011;23726;52.520;13.434;2022-11-20T03:50:53;24.67;;;15.88;;
37885;SDS011;23726;52.520;13.434;2022-11-20T03:53:32;20.55;;;14.52;;
37885;SDS011;23726;52.520;13.434;2022-11-20T03:55:58;23.85;;;15.68;;
37885;SDS011;23726;52.520;13.434;2022-11-20T03:58:24;25.30;;;15.70;;
37885;SDS011;23726;52.520;13.434;2022-11-20T04:00:49;24.40;;;15.95;;
37885;SDS011;23726;52.520;13.434;2022-11-20T04:03:15;22.65;;;14.95;;
37885;SDS011;23726;52.520;13.434;2022-11-20T04:05:41;23.00;;;14.80;;
37885;SDS011;23726;52.520;13.434;2022-11-20T04:08:06;21.80;;;14.65;;
37885;SDS011;23726;52.520;13.434;2022-11-20T04:10:32;23.95;;;15.45;;
37885;SDS011;23726;52.520;13.434;2022-11-20T04:12:57;22.55;;;14.70;;
37885;SDS011;23726;52.520;13.434;2022-11-20T04:15:23;22.13;;;14.25;;
37885;SDS011;23726;52.520;13.434;2022-11-20T04:17:48;21.88;;;14.50;;
37885;SDS011;23726;52.520;13.434;2022-11-20T04:20:14;22.45;;;14.68;;
37885;SDS011;23726;52.520;13.434;2022-11-20T04:22:40;20.48;;;14.93;;
37885;SDS011;23726;52.520;13.434;2022-11-20T04:25:05;22.85;;;15.23;;
37885;SDS011;23726;52.520;13.434;2022-11-20T04:27:32;21.55;;;14.38;;
37885;SDS011;23726;52.520;13.434;2022-11-20T04:29:58;21.75;;;14.82;;
37885;SDS011;23726;52.520;13.434;2022-11-20T04:32:24;22.80;;;14.57;;
37885;SDS011;23726;52.520;13.434;2022-11-20T04:34:49;20.88;;;14.68;;
37885;SDS011;23726;52.520;13.434;2022-11-20T04:37:16;23.27;;;14.98;;
37885;SDS011;23726;52.520;13.434;2022-11-20T04:39:41;23.08;;;14.80;;
37885;SDS011;23726;52.520;13.434;2022-11-20T04:42:08;22.73;;;14.05;;
37885;SDS011;23726;52.520;13.434;2022-11-20T04:44:53;20.98;;;14.02;;
37885;SDS011;23726;52.520;13.434;2022-11-20T04:47:18;18.17;;;13.30;;
37885;SDS011;23726;52.520;13.434;2022-11-20T04:49:44;21.75;;;15.00;;
37885;SDS011;23726;52.520;13.434;2022-11-20T04:52:10;22.38;;;15.07;;
37885;SDS011;23726;52.520;13.434;2022-11-20T04:54:35;19.90;;;13.98;;
37885;SDS011;23726;52.520;13.434;2022-11-20T04:57:01;21.70;;;14.02;;
37885;SDS011;23726;52.520;13.434;2022-11-20T04:59:26;21.85;;;13.93;;
37885;SDS011;23726;52.520;13.434;2022-11-20T05:01:52;20.80;;;13.10;;
37885;SDS011;23726;52.520;13.434;2022-11-20T05:04:18;22.08;;;14.43;;
37885;SDS011;23726;52.520;13.434;2022-11-20T05:06:44;20.92;;;13.85;;
37885;SDS011;23726;52.520;13.434;2022-11-20T05:09:10;20.00;;;13.27;;
37885;SDS011;23726;52.520;13.434;2022-11-20T05:11:37;19.92;;;14.35;;
37885;SDS011;23726;52.520;13.434;2022-11-20T05:14:02;18.58;;;12.98;;
37885;SDS011;23726;52.520;13.434;2022-11-20T05:16:28;21.55;;;14.02;;
37885;SDS011;23726;52.520;13.434;2022-11-20T05:18:53;19.42;;;13.65;;
37885;SDS011;23726;52.520;13.434;2022-11-20T05:21:20;16.65;;;12.40;;
37885;SDS011;23726;52.520;13.434;2022-11-20T05:23:45;18.83;;;13.48;;
37885;SDS011;23726;52.520;13.434;2022-11-20T05:26:13;20.92;;;14.00;;
37885;SDS011;23726;52.520;13.434;2022-11-20T05:28:40;20.45;;;13.73;;
37885;SDS011;23726;52.520;13.434;2022-11-20T05:31:13;19.27;;;13.38;;
37885;SDS011;23726;52.520;13.434;2022-11-20T05:33:41;20.50;;;13.95;;
37885;SDS011;23726;52.520;13.434;2022-11-20T05:36:08;20.45;;;13.73;;
37885;SDS011;23726;52.520;13.434;2022-11-20T05:38:35;19.63;;;13.35;;
37885;SDS011;23726;52.520;13.434;2022-11-20T05:41:09;17.65;;;13.18;;
37885;SDS011;23726;52.520;13.434;2022-11-20T05:43:37;19.48;;;12.77;;
37885;SDS011;23726;52.520;13.434;2022-11-20T05:46:04;17.85;;;13.02;;
37885;SDS011;23726;52.520;13.434;2022-11-20T05:48:30;17.27;;;13.25;;
37885;SDS011;23726;52.520;13.434;2022-11-20T05:50:57;18.63;;;13.25;;
37885;SDS011;23726;52.520;13.434;2022-11-20T05:53:24;20.02;;;13.15;;
37885;SDS011;23726;52.520;13.434;2022-11-20T05:58:36;20.83;;;13.63;;
37885;SDS011;23726;52.520;13.434;2022-11-20T06:01:06;15.27;;;11.77;;
37885;SDS011;23726;52.520;13.434;2022-11-20T06:03:33;19.13;;;12.55;;
37885;SDS011;23726;52.520;13.434;2022-11-20T06:06:00;16.73;;;12.93;;
37885;SDS011;23726;52.520;13.434;2022-11-20T06:08:27;16.85;;;12.73;;
37885;SDS011;23726;52.520;13.434;2022-11-20T06:10:52;18.23;;;12.70;;
37885;SDS011;23726;52.520;13.434;2022-11-20T06:13:18;17.95;;;12.95;;
37885;SDS011;23726;52.520;13.434;2022-11-20T06:15:50;19.48;;;13.52;;
37885;SDS011;23726;52.520;13.434;2022-11-20T06:18:18;17.02;;;12.05;;
37885;SDS011;23726;52.520;13.434;2022-11-20T06:20:45;16.52;;;12.18;;
37885;SDS011;23726;52.520;13.434;2022-11-20T06:23:11;17.00;;;12.13;;
37885;SDS011;23726;52.520;13.434;2022-11-20T06:25:38;18.83;;;12.70;;
37885;SDS011;23726;52.520;13.434;2022-11-20T06:28:05;20.05;;;12.85;;
37885;SDS011;23726;52.520;13.434;2022-11-20T06:30:31;17.48;;;13.10;;
37885;SDS011;23726;52.520;13.434;2022-11-20T06:32:57;19.25;;;13.05;;
37885;SDS011;23726;52.520;13.434;2022-11-20T06:35:22;16.40;;;11.40;;
37885;SDS011;23726;52.520;13.434;2022-11-20T06:37:48;16.92;;;12.07;;
37885;SDS011;23726;52.520;13.434;2022-11-20T06:40:14;17.13;;;12.45;;
37885;SDS011;23726;52.520;13.434;2022-11-20T06:42:40;18.38;;;12.05;;
37885;SDS011;23726;52.520;13.434;2022-11-20T06:45:05;19.08;;;12.95;;
37885;SDS011;23726;52.520;13.434;2022-11-20T06:47:31;17.00;;;11.90;;
37885;SDS011;23726;52.520;13.434;2022-11-20T06:49:57;17.38;;;11.50;;
37885;SDS011;23726;52.520;13.434;2022-11-20T06:52:23;16.42;;;12.48;;
37885;SDS011;23726;52.520;13.434;2022-11-20T06:54:48;15.85;;;11.80;;
37885;SDS011;23726;52.520;13.434;2022-11-20T06:57:14;17.27;;;11.57;;
37885;SDS011;23726;52.520;13.434;2022-11-20T06:59:39;16.25;;;11.70;;
37885;SDS011;23726;52.520;13.434;2022-11-20T07:02:08;18.80;;;12.98;;
37885;SDS011;23726;52.520;13.434;2022-11-20T07:04:35;16.67;;;11.88;;
37885;SDS011;23726;52.520;13.434;2022-11-20T07:07:01;17.15;;;12.00;;
37885;SDS011;23726;52.520;13.434;2022-11-20T07:09:26;16.23;;;11.48;;
37885;SDS011;23726;52.520;13.434;2022-11-20T07:11:52;17.15;;;12.02;;
37885;SDS011;23726;52.520;13.434;2022-11-20T07:14:17;17.20;;;11.85;;
37885;SDS011;23726;52.520;13.434;2022-11-20T07:16:43;14.95;;;11.32;;
37885;SDS011;23726;52.520;13.434;2022-11-20T07:19:08;16.55;;;12.00;;
37885;SDS011;23726;52.520;13.434;2022-11-20T07:21:34;15.73;;;11.48;;
37885;SDS011;23726;52.520;13.434;2022-11-20T07:24:00;15.02;;;11.23;;
37885;SDS011;23726;52.520;13.434;2022-11-20T07:26:25;18.10;;;11.38;;
37885;SDS011;23726;52.520;13.434;2022-11-20T07:28:51;16.10;;;11.82;;
37885;SDS011;23726;52.520;13.434;2022-11-20T07:31:16;15.75;;;11.68;;
37885;SDS011;23726;52.520;13.434;2022-11-20T07:33:42;16.13;;;11.55;;
37885;SDS011;23726;52.520;13.434;2022-11-20T07:36:08;16.33;;;10.93;;
37885;SDS011;23726;52.520;13.434;2022-11-20T07:38:34;16.52;;;11.50;;
37885;SDS011;23726;52.520;13.434;2022-11-20T07:41:00;15.15;;;11.18;;
37885;SDS011;23726;52.520;13.434;2022-11-20T07:43:26;16.15;;;11.50;;
37885;SDS011;23726;52.520;13.434;2022-11-20T07:45:55;15.25;;;11.23;;
37885;SDS011;23726;52.520;13.434;2022-11-20T07:48:21;21.73;;;11.68;;
37885;SDS011;23726;52.520;13.434;2022-11-20T07:50:47;15.15;;;10.27;;
37885;SDS011;23726;52.520;13.434;2022-11-20T07:53:13;16.27;;;11.57;;
37885;SDS011;23726;52.520;13.434;2022-11-20T07:55:39;16.23;;;11.48;;
37885;SDS011;23726;52.520;13.434;2022-11-20T07:58:04;16.15;;;11.48;;
37885;SDS011;23726;52.520;13.434;2022-11-20T08:00:30;15.43;;;10.88;;
37885;SDS011;23726;52.520;13.434;2022-11-20T08:02:56;14.50;;;10.57;;
37885;SDS011;23726;52.520;13.434;2022-11-20T08:05:22;13.88;;;10.40;;
37885;SDS011;23726;52.520;13.434;2022-11-20T08:07:47;15.55;;;11.27;;
37885;SDS011;23726;52.520;13.434;2022-11-20T08:10:14;14.85;;;10.52;;
37885;SDS011;23726;52.520;13.434;2022-11-20T08:12:48;15.20;;;10.45;;
37885;SDS011;23726;52.520;13.434;2022-11-20T08:15:34;15.45;;;10.32;;
37885;SDS011;23726;52.520;13.434;2022-11-20T08:20:29;13.00;;;10.02;;
37885;SDS011;23726;52.520;13.434;2022-11-20T08:22:59;15.60;;;11.05;;
37885;SDS011;23726;52.520;13.434;2022-11-20T08:25:33;14.80;;;10.63;;
37885;SDS011;23726;52.520;13.434;2022-11-20T08:28:00;12.70;;;9.95;;
37885;SDS011;23726;52.520;13.434;2022-11-20T08:30:27;12.23;;;10.00;;
37885;SDS011;23726;52.520;13.434;2022-11-20T08:32:54;15.90;;;10.88;;
37885;SDS011;23726;52.520;13.434;2022-11-20T08:35:25;15.20;;;10.82;;
37885;SDS011;23726;52.520;13.434;2022-11-20T08:37:51;13.35;;;10.15;;
37885;SDS011;23726;52.520;13.434;2022-11-20T08:40:18;14.23;;;10.85;;
37885;SDS011;23726;52.520;13.434;2022-11-20T08:42:47;14.60;;;10.27;;
37885;SDS011;23726;52.520;13.434;2022-11-20T08:45:13;13.77;;;9.63;;
37885;SDS011;23726;52.520;13.434;2022-11-20T08:47:39;13.38;;;10.10;;
37885;SDS011;23726;52.520;13.434;2022-11-20T08:50:06;12.45;;;10.02;;
37885;SDS011;23726;52.520;13.434;2022-11-20T08:52:32;12.18;;;9.80;;
37885;SDS011;23726;52.520;13.434;2022-11-20T08:54:57;14.52;;;10.00;;
37885;SDS011;23726;52.520;13.434;2022-11-20T08:57:23;15.80;;;10.60;;
37885;SDS011;23726;52.520;13.434;2022-11-20T08:59:49;14.50;;;10.32;;
37885;SDS011;23726;52.520;13.434;2022-11-20T09:02:14;15.80;;;11.05;;
37885;SDS011;23726;52.520;13.434;2022-11-20T09:04:40;12.98;;;10.23;;
37885;SDS011;23726;52.520;13.434;2022-11-20T09:07:06;15.32;;;10.20;;
37885;SDS011;23726;52.520;13.434;2022-11-20T09:09:32;12.50;;;9.98;;
37885;SDS011;23726;52.520;13.434;2022-11-20T09:11:58;12.88;;;9.77;;
37885;SDS011;23726;52.520;13.434;2022-11-20T09:14:24;13.52;;;9.65;;
37885;SDS011;23726;52.520;13.434;2022-11-20T09:16:55;12.40;;;9.75;;
37885;SDS011;23726;52.520;13.434;2022-11-20T09:19:21;15.82;;;10.65;;
37885;SDS011;23726;52.520;13.434;2022-11-20T09:21:48;13.38;;;9.70;;
37885;SDS011;23726;52.520;13.434;2022-11-20T09:24:13;12.77;;;9.95;;
37885;SDS011;23726;52.520;13.434;2022-11-20T09:26:39;14.25;;;9.73;;
37885;SDS011;23726;52.520;13.434;2022-11-20T09:29:04;12.05;;;9.75;;
37885;SDS011;23726;52.520;13.434;2022-11-20T09:31:30;12.45;;;10.27;;
37885;SDS011;23726;52.520;13.434;2022-11-20T09:33:56;12.32;;;9.25;;
37885;SDS011;23726;52.520;13.434;2022-11-20T09:36:22;14.30;;;9.82;;
37885;SDS011;23726;52.520;13.434;2022-11-20T09:38:48;13.35;;;10.02;;
37885;SDS011;23726;52.520;13.434;2022-11-20T09:46:53;12.63;;;9.45;;
37885;SDS011;23726;52.520;13.434;2022-11-20T09:49:44;12.98;;;9.40;;
37885;SDS011;23726;52.520;13.434;2022-11-20T09:54:58;11.43;;;9.02;;
37885;SDS011;23726;52.520;13.434;2022-11-20T09:57:36;12.15;;;9.10;;
37885;SDS011;23726;52.520;13.434;2022-11-20T10:00:09;15.02;;;9.40;;
37885;SDS011;23726;52.520;13.434;2022-11-20T10:02:39;13.05;;;9.98;;
37885;SDS011;23726;52.520;13.434;2022-11-20T10:05:10;12.75;;;9.63;;
37885;SDS011;23726;52.520;13.434;2022-11-20T10:08:01;12.38;;;9.52;;
37885;SDS011;23726;52.520;13.434;2022-11-20T10:10:47;12.13;;;9.23;;
37885;SDS011;23726;52.520;13.434;2022-11-20T10:21:03;11.90;;;8.95;;
37885;SDS011;23726;52.520;13.434;2022-11-20T10:24:02;11.98;;;9.20;;
37885;SDS011;23726;52.520;13.434;2022-11-20T10:29:29;12.63;;;8.95;;
37885;SDS011;23726;52.520;13.434;2022-11-20T10:32:03;11.52;;;9.07;;
37885;SDS011;23726;52.520;13.434;2022-11-20T10:43:12;12.95;;;8.57;;
37885;SDS011;23726;52.520;13.434;2022-11-20T10:48:25;10.45;;;8.93;;
37885;SDS011;23726;52.520;13.434;2022-11-20T10:56:42;11.80;;;8.90;;
37885;SDS011;23726;52.520;13.434;2022-11-20T11:02:16;11.27;;;8.40;;
37885;SDS011;23726;52.520;13.434;2022-11-20T11:04:52;11.82;;;8.73;;
37885;SDS011;23726;52.520;13.434;2022-11-20T11:07:20;10.15;;;8.05;;
37885;SDS011;23726;52.520;13.434;2022-11-20T11:09:51;11.60;;;8.85;;
37885;SDS011;23726;52.520;13.434;2022-11-20T11:12:22;12.18;;;8.52;;
37885;SDS011;23726;52.520;13.434;2022-11-20T11:14:51;12.02;;;8.93;;
37885;SDS011;23726;52.520;13.434;2022-11-20T11:17:25;12.48;;;8.60;;
37885;SDS011;23726;52.520;13.434;2022-11-20T11:19:57;11.35;;;8.63;;
37885;SDS011;23726;52.520;13.434;2022-11-20T11:22:23;10.70;;;8.20;;
37885;SDS011;23726;52.520;13.434;2022-11-20T11:24:52;11.10;;;8.40;;
37885;SDS011;23726;52.520;13.434;2022-11-20T11:27:18;10.07;;;7.97;;
37885;SDS011;23726;52.520;13.434;2022-11-20T11:29:44;10.52;;;8.10;;
37885;SDS011;23726;52.520;13.434;2022-11-20T11:32:18;12.27;;;8.75;;
37885;SDS011;23726;52.520;13.434;2022-11-20T11:34:57;10.05;;;8.43;;
37885;SDS011;23726;52.520;13.434;2022-11-20T11:37:33;9.63;;;8.13;;
37885;SDS011;23726;52.520;13.434;2022-11-20T11:40:01;9.98;;;8.02;;
37885;SDS011;23726;52.520;13.434;2022-11-20T11:42:28;10.27;;;8.30;;
37885;SDS011;23726;52.520;13.434;2022-11-20T11:44:55;10.25;;;8.27;;
37885;SDS011;23726;52.520;13.434;2022-11-20T11:47:36;13.63;;;9.13;;
37885;SDS011;23726;52.520;13.434;2022-11-20T11:53:17;11.10;;;8.20;;
37885;SDS011;23726;52.520;13.434;2022-11-20T11:55:49;10.55;;;8.05;;
37885;SDS011;23726;52.520;13.434;2022-11-20T11:58:31;11.68;;;8.52;;
37885;SDS011;23726;52.520;13.434;2022-11-20T12:07:07;12.00;;;7.30;;
37885;SDS011;23726;52.520;13.434;2022-11-20T12:09:42;9.80;;;7.78;;
37885;SDS011;23726;52.520;13.434;2022-11-20T12:12:17;10.60;;;8.13;;
37885;SDS011;23726;52.520;13.434;2022-11-20T12:14:46;13.13;;;7.93;;
37885;SDS011;23726;52.520;13.434;2022-11-20T12:17:15;13.73;;;7.90;;
37885;SDS011;23726;52.520;13.434;2022-11-20T12:19:40;11.63;;;8.27;;
37885;SDS011;23726;52.520;13.434;2022-11-20T12:27:36;10.40;;;7.45;;
37885;SDS011;23726;52.520;13.434;2022-11-20T12:30:09;9.18;;;7.47;;
37885;SDS011;23726;52.520;13.434;2022-11-20T12:38:40;10.45;;;8.10;;
37885;SDS011;23726;52.520;13.434;2022-11-20T12:53:08;10.25;;;7.45;;
37885;SDS011;23726;52.520;13.434;2022-11-20T12:55:51;9.00;;;7.43;;
37885;SDS011;23726;52.520;13.434;2022-11-20T13:07:28;8.40;;;7.20;;
37885;SDS011;23726;52.520;13.434;2022-11-20T13:09:55;8.77;;;7.43;;
37885;SDS011;23726;52.520;13.434;2022-11-20T13:20:21;10.48;;;7.53;;
37885;SDS011;23726;52.520;13.434;2022-11-20T13:27:56;8.80;;;7.20;;
37885;SDS011;23726;52.520;13.434;2022-11-20T13:30:28;9.48;;;7.18;;
37885;SDS011;23726;52.520;13.434;2022-11-20T13:33:01;8.15;;;6.85;;
37885;SDS011;23726;52.520;13.434;2022-11-20T13:38:07;8.55;;;6.72;;
37885;SDS011;23726;52.520;13.434;2022-11-20T13:40:36;8.15;;;6.90;;
37885;SDS011;23726;52.520;13.434;2022-11-20T13:45:57;8.18;;;6.57;;
37885;SDS011;23726;52.520;13.434;2022-11-20T13:48:32;10.45;;;6.93;;
37885;SDS011;23726;52.520;13.434;2022-11-20T13:56:53;8.88;;;6.68;;
37885;SDS011;23726;52.520;13.434;2022-11-20T13:59:40;9.48;;;7.25;;
37885;SDS011;23726;52.520;13.434;2022-11-20T14:02:18;8.20;;;6.35;;
37885;SDS011;23726;52.520;13.434;2022-11-20T14:04:50;8.38;;;7.35;;
37885;SDS011;23726;52.520;13.434;2022-11-20T14:07:21;8.32;;;6.60;;
37885;SDS011;23726;52.520;13.434;2022-11-20T14:10:01;8.40;;;6.88;;
37885;SDS011;23726;52.520;13.434;2022-11-20T14:12:28;7.63;;;6.50;;
37885;SDS011;23726;52.520;13.434;2022-11-20T14:14:55;7.82;;;6.00;;
37885;SDS011;23726;52.520;13.434;2022-11-20T14:17:22;7.25;;;6.40;;
37885;SDS011;23726;52.520;13.434;2022-11-20T14:19:54;10.43;;;7.03;;
37885;SDS011;23726;52.520;13.434;2022-11-20T14:22:24;7.80;;;6.03;;
37885;SDS011;23726;52.520;13.434;2022-11-20T14:25:51;16.67;;;9.40;;
37885;SDS011;23726;52.520;13.434;2022-11-20T14:27:50;55.47;;;29.65;;
37885;SDS011;23726;52.520;13.434;2022-11-20T14:30:22;79.18;;;49.28;;
37885;SDS011;23726;52.520;13.434;2022-11-20T14:32:49;246.93;;;171.48;;
37885;SDS011;23726;52.520;13.434;2022-11-20T14:35:26;181.35;;;120.93;;
37885;SDS011;23726;52.520;13.434;2022-11-20T14:37:54;178.20;;;115.53;;
37885;SDS011;23726;52.520;13.434;2022-11-20T14:40:27;211.07;;;129.00;;
37885;SDS011;23726;52.520;13.434;2022-11-20T14:42:56;225.48;;;139.70;;
37885;SDS011;23726;52.520;13.434;2022-11-20T14:45:23;226.25;;;139.68;;
37885;SDS011;23726;52.520;13.434;2022-11-20T14:47:50;205.82;;;124.68;;
37885;SDS011;23726;52.520;13.434;2022-11-20T14:50:25;229.82;;;137.18;;
37885;SDS011;23726;52.520;13.434;2022-11-20T14:52:53;213.90;;;132.05;;
37885;SDS011;23726;52.520;13.434;2022-11-20T14:57:55;214.07;;;131.60;;
37885;SDS011;23726;52.520;13.434;2022-11-20T15:00:29;209.20;;;129.98;;
37885;SDS011;23726;52.520;13.434;2022-11-20T15:02:56;212.63;;;128.48;;
37885;SDS011;23726;52.520;13.434;2022-11-20T15:05:23;211.93;;;126.70;;
37885;SDS011;23726;52.520;13.434;2022-11-20T15:08:08;209.48;;;121.18;;
37885;SDS011;23726;52.520;13.434;2022-11-20T15:10:35;204.35;;;123.13;;
37885;SDS011;23726;52.520;13.434;2022-11-20T15:13:03;202.02;;;124.88;;
37885;SDS011;23726;52.520;13.434;2022-11-20T15:15:36;204.55;;;121.60;;
37885;SDS011;23726;52.520;13.434;2022-11-20T15:18:12;192.55;;;120.28;;
37885;SDS011;23726;52.520;13.434;2022-11-20T15:20:39;201.43;;;120.15;;
37885;SDS011;23726;52.520;13.434;2022-11-20T15:23:17;192.48;;;118.32;;
37885;SDS011;23726;52.520;13.434;2022-11-20T15:25:43;187.95;;;121.10;;
37885;SDS011;23726;52.520;13.434;2022-11-20T15:28:27;205.18;;;121.78;;
37885;SDS011;23726;52.520;13.434;2022-11-20T15:30:56;191.88;;;118.07;;
37885;SDS011;23726;52.520;13.434;2022-11-20T15:33:22;194.65;;;118.30;;
37885;SDS011;23726;52.520;13.434;2022-11-20T15:35:47;190.48;;;116.80;;
37885;SDS011;23726;52.520;13.434;2022-11-20T15:38:13;186.05;;;117.72;;
37885;SDS011;23726;52.520;13.434;2022-11-20T15:40:39;178.77;;;114.65;;
37885;SDS011;23726;52.520;13.434;2022-11-20T15:43:05;184.00;;;113.30;;
37885;SDS011;23726;52.520;13.434;2022-11-20T15:48:15;178.15;;;111.60;;
37885;SDS011;23726;52.520;13.434;2022-11-20T15:53:36;170.05;;;108.20;;
37885;SDS011;23726;52.520;13.434;2022-11-20T15:56:03;174.48;;;112.03;;
37885;SDS011;23726;52.520;13.434;2022-11-20T15:58:29;179.48;;;109.10;;
37885;SDS011;23726;52.520;13.434;2022-11-20T16:00:54;167.82;;;107.53;;
37885;SDS011;23726;52.520;13.434;2022-11-20T16:03:20;174.68;;;109.88;;
37885;SDS011;23726;52.520;13.434;2022-11-20T16:05:46;171.45;;;109.07;;
37885;SDS011;23726;52.520;13.434;2022-11-20T16:08:12;174.18;;;108.47;;
37885;SDS011;23726;52.520;13.434;2022-11-20T16:10:38;168.43;;;108.60;;
37885;SDS011;23726;52.520;13.434;2022-11-20T16:13:04;169.73;;;105.93;;
37885;SDS011;23726;52.520;13.434;2022-11-20T16:15:55;171.48;;;106.70;;
37885;SDS011;23726;52.520;13.434;2022-11-20T16:18:23;161.98;;;103.57;;